WEATHER DATA

YESTERDAY
Time Temp. Dewp. Hum. Bar.
00:17 8.8 1.7 61 1014.9
00:27 8.5 1.6 62 1015
00:37 8.4 1.8 63 1014.9
00:47 8.3 1.7 63 1014.9
00:57 8.2 1.6 63 1015
01:07 8 1.6 64 1015
01:17 7.8 1.4 64 1014.9
01:27 7.8 1.6 65 1014.9
01:38 7.9 1.7 65 1014.9
01:47 8 1.8 65 1014.9
01:57 8 1.8 65 1014.9
02:08 8.1 1.7 64 1014.9
02:18 8 1.8 65 1014.9
02:27 8.1 1.9 65 1014.9
02:38 8.1 1.7 64 1014.7
02:48 8.1 1.7 64 1014.8
02:58 8 1.8 65 1014.7
03:08 8 1.8 65 1014.6
03:18 7.9 1.7 65 1014.5
03:28 7.8 1.6 65 1014.5
03:38 7.7 1.5 65 1014.5
03:48 7.7 1.5 65 1014.6
03:59 7.7 1.5 65 1014.4
04:08 7.7 1.5 65 1014.3
04:18 7.6 1.4 65 1014.5
04:29 7.4 1.5 66 1014.4
04:39 7.1 1.2 66 1014.3
04:49 6.7 0.8 66 1014.4
04:59 6.3 0.6 67 1014.4
05:09 6 0.3 67 1014.2
05:19 5.7 0.3 68 1014.2
05:29 5.4 0 68 1014.2
05:40 5.1 -0.1 69 1014.2
05:49 4.8 -0.4 69 1014.2
05:59 4.5 -0.6 69 1014.2
06:09 4.2 -0.9 69 1014.3
06:20 3.9 -0.9 70 1014.2
06:29 3.6 -1.2 70 1014.1
06:39 3.4 -1.2 71 1014.1
06:50 3.2 -1.2 72 1014.1
07:00 3.3 -0.9 73 1014
07:10 3.3 -0.9 73 1014
07:19 3.5 -0.6 74 1014
07:30 3.5 -0.6 74 1013.8
07:40 3.5 -0.8 73 1013.8
07:50 3.5 -0.6 74 1013.9
08:10 3.8 -0.4 74 1013.9
08:20 4 -0.2 74 1014.1
08:30 4.3 0.1 74 1014
08:41 4.4 0.2 74 1014.3
09:00 4.3 0.1 74 1013.9
09:11 4.4 0.2 74 1013.8
09:21 4.7 0.7 75 1013.8
09:31 5.1 1 75 1013.8
09:41 5.5 1.4 75 1013.6
09:51 5.9 1.8 75 1013.6
10:01 6.3 2 74 1013.6
10:11 7.3 2.8 73 1013.4
10:21 8.2 3.3 71 1013.4
10:32 9.2 3.8 69 1013.4
10:41 9.8 4 67 1013.5
10:51 10.5 4.2 65 1013.4
11:02 11.1 4.3 63 1013.5
11:12 11.8 4.5 61 1013.5
11:21 12.5 4.7 59 1013.4
11:32 13 4.9 58 1013.3
11:42 13.3 4.7 56 1013.1
11:52 13.6 4.7 55 1013
12:02 13.8 4.7 54 1012.9
12:12 14 4.3 52 1013
12:22 14.2 4.8 53 1012.8
12:32 14.4 5 53 1012.7
12:42 14.5 5 53 1012.5
12:53 14.7 5 52 1012.5
13:02 14.8 4.8 51 1012.3
13:12 15.1 4.8 50 1012.2
13:23 15.3 5.2 51 1012
13:33 15.4 5.3 51 1011.9
13:43 15.7 5.9 52 1011.8
13:53 16 6.2 52 1011.6
14:03 16.3 6.2 51 1011.5
14:13 16.5 5.8 49 1011.3
14:23 16.5 5.5 48 1011
14:34 16.6 5.6 48 1010.8
14:43 16.8 5.7 48 1010.7
14:53 17 5.9 48 1010.3
15:04 17.2 5.5 46 1010.2
15:13 17.3 5.3 45 1010.2
15:23 17.6 5.5 45 1010.1
15:34 17.8 5.4 44 1010
15:44 17.9 5.5 44 1009.9
15:54 18 5.6 44 1009.9
16:04 18 5.6 44 1009.9
16:13 17.9 5.8 45 1009.9
16:24 17.5 5.1 44 1010
16:34 16.9 5.2 46 1009.9
16:45 16.5 5.2 47 1009.9
16:54 16.1 4.8 47 1009.7
17:04 15.8 4.5 47 1009.8
17:14 15.5 4.5 48 1009.9
17:25 15.1 4.5 49 1009.9
17:35 14.8 4.5 50 1009.7
17:44 14.5 3.9 49 1009.8
17:55 14.2 3.1 47 1009.9
18:05 13.9 2.8 47 1009.9
18:15 13.6 2.8 48 1010
18:25 13.3 2.8 49 1010
18:35 13 2.8 50 1009.8
18:45 12.7 2.8 51 1009.7
18:55 12.4 2.8 52 1009.7
19:06 12.2 2.9 53 1009.8
19:15 12.1 3.1 54 1009.9
19:25 11.9 3.2 55 1010
19:35 11.7 3.2 56 1010.2
19:46 11.6 3.4 57 1010.1
19:56 11.4 3.4 58 1010.1
20:05 11.3 3.3 58 1010.1
20:16 11.2 3.5 59 1010.3
20:26 11.1 3.4 59 1010.3
20:36 11 3.5 60 1010.3
20:46 10.8 3.4 60 1010.3
20:56 10.6 3.4 61 1010.1
21:06 10.5 3.5 62 1010.3
21:16 10.4 3.4 62 1010.4
21:27 10.3 3.3 62 1010.5
21:37 10.3 3.6 63 1010.5
21:46 10.3 3.6 63 1010.4
21:56 10.2 3.5 63 1010.5
22:07 10.1 3.4 63 1010.4
22:17 10 3.5 64 1010.5
22:26 9.9 3.4 64 1010.7
22:37 9.8 3.3 64 1010.5
22:47 9.7 3.2 64 1010.5
22:57 9.7 3.4 65 1010.5
23:07 9.5 3.3 65 1010.7
23:17 9.4 3.2 65 1010.7
23:27 9.4 3.4 66 1010.8
23:37 9.4 3.4 66 1010.7
23:47 9.3 3.3 66 1010.5
23:58 9.3 3.3 66 1010.5

DAY STATISTIC

2019-02-18
TEMPERATURE
AVERAGE
10.3
HIGH
18.0
15:54
LOW
3.2
06:50
PRESSURE
AVERAGE
1012.3
HIGH
1015.0
00:27
LOW
1009.7
16:54
DEWPOINT
AVERAGE
2.8
HIGH
6.2
13:53
LOW
-1.2
06:29
HUMIDITY
AVERAGE
61
HIGH
75
09:21
LOW
44
15:34
TEMPERATURE (°C)
LOW
3.2
HIGH
18.0
AVERAGE
10.3
PRESSURE (hpa)
LOW
1009.7
HIGH
1015.0
AVERAGE
1012.3
DEVICE